Time;durP1;ratioP1;P1;durP2;ratioP2;P2;SDS_P1;SDS_P2;PMS_P1;PMS_P2;Temp;Humidity;BMP_temperature;BMP_pressure;BME280_temperature;BME280_humidity;BME280_pressure;Samples;Min_cycle;Max_cycle;Signal;HPM_P1;HPM_P2
2023/01/26 00:00:14;;;;;;;27.35;11.88;;;0.60;80.40;;;;;;4223787;27;20046;-83
2023/01/26 00:02:34;;;;;;;28.55;11.82;;;0.50;80.40;;;;;;4214057;28;20534;-84
2023/01/26 00:04:53;;;;;;;23.52;10.52;;;0.50;80.40;;;;;;4221846;28;20409;-83
2023/01/26 00:07:12;;;;;;;32.40;13.18;;;0.50;80.50;;;;;;4225439;27;20093;-83
2023/01/26 00:09:31;;;;;;;29.25;12.05;;;0.60;80.60;;;;;;4225542;27;20126;-83
2023/01/26 00:11:50;;;;;;;27.02;11.50;;;0.60;80.60;;;;;;4221114;28;20039;-83
2023/01/26 00:14:09;;;;;;;28.40;11.07;;;0.50;80.60;;;;;;4224566;27;20457;-83
2023/01/26 00:16:28;;;;;;;27.58;12.00;;;0.60;80.70;;;;;;4207035;28;20047;-83
2023/01/26 00:18:47;;;;;;;28.77;11.43;;;0.60;80.70;;;;;;4224678;27;20112;-83
2023/01/26 00:21:08;;;;;;;27.25;11.45;;;0.60;80.70;;;;;;4226579;27;20093;-84
2023/01/26 00:23:29;;;;;;;24.40;10.45;;;0.60;80.80;;;;;;4227911;28;20045;-84
2023/01/26 00:25:48;;;;;;;24.20;10.15;;;0.60;80.70;;;;;;4223779;28;20042;-84
2023/01/26 00:28:07;;;;;;;22.45;10.40;;;0.60;80.70;;;;;;4226747;27;20039;-83
2023/01/26 00:30:27;;;;;;;25.75;10.70;;;0.60;81.60;;;;;;4226246;27;20100;-83
2023/01/26 00:32:46;;;;;;;18.77;8.18;;;0.60;80.80;;;;;;4224929;27;20500;-84
2023/01/26 00:35:05;;;;;;;19.52;9.07;;;0.60;80.70;;;;;;4230301;27;20097;-84
2023/01/26 00:37:25;;;;;;;20.77;9.15;;;0.60;80.80;;;;;;4226435;27;20097;-83
2023/01/26 00:39:44;;;;;;;22.13;9.35;;;0.60;80.70;;;;;;4225568;27;20089;-83
2023/01/26 00:42:05;;;;;;;24.38;10.05;;;0.60;80.70;;;;;;4228881;27;20035;-84
2023/01/26 00:44:25;;;;;;;22.05;9.25;;;0.60;80.90;;;;;;4229027;27;20039;-83
2023/01/26 00:46:44;;;;;;;20.83;9.25;;;0.60;80.90;;;;;;4226834;27;20039;-84
2023/01/26 00:49:03;;;;;;;21.70;9.40;;;0.70;80.90;;;;;;4230140;27;20039;-83
2023/01/26 00:51:22;;;;;;;22.13;8.90;;;0.70;80.80;;;;;;4214380;27;20039;-82
2023/01/26 00:53:41;;;;;;;20.73;9.32;;;0.70;80.90;;;;;;4227967;27;20734;-84
2023/01/26 00:56:00;;;;;;;21.83;9.02;;;0.70;80.90;;;;;;4229500;27;20039;-84
2023/01/26 00:58:19;;;;;;;23.13;9.95;;;0.70;80.80;;;;;;4218090;28;20039;-84
2023/01/26 01:00:38;;;;;;;19.20;8.70;;;0.70;80.90;;;;;;4210519;27;20144;-84
2023/01/26 01:02:58;;;;;;;19.20;8.10;;;0.70;80.90;;;;;;4226525;27;20342;-83
2023/01/26 01:05:17;;;;;;;24.50;9.30;;;0.70;80.80;;;;;;4224050;27;20053;-83
2023/01/26 01:07:36;;;;;;;19.02;8.88;;;0.70;80.90;;;;;;4228117;27;20042;-84
2023/01/26 01:09:55;;;;;;;21.25;8.82;;;0.70;80.90;;;;;;4222848;27;20050;-83
2023/01/26 01:12:14;;;;;;;20.92;8.85;;;0.70;81.00;;;;;;4209367;28;20062;-84
2023/01/26 01:14:33;;;;;;;18.80;8.15;;;0.70;80.90;;;;;;4225405;28;20100;-84
2023/01/26 01:16:53;;;;;;;17.67;8.13;;;0.70;80.70;;;;;;4227056;27;20046;-83
2023/01/26 01:19:14;;;;;;;17.92;8.13;;;0.70;80.90;;;;;;4222549;27;20083;-84
2023/01/26 01:21:35;;;;;;;15.40;7.20;;;0.80;81.00;;;;;;4222030;27;20038;-84
2023/01/26 01:23:54;;;;;;;18.58;7.90;;;0.80;80.90;;;;;;4226986;27;20114;-84
2023/01/26 01:26:14;;;;;;;16.27;6.90;;;0.80;81.00;;;;;;4223680;27;20065;-83
2023/01/26 01:28:34;;;;;;;14.13;6.60;;;0.70;81.00;;;;;;4224764;27;20038;-83
2023/01/26 01:30:54;;;;;;;15.40;7.47;;;0.80;81.00;;;;;;4228147;27;20058;-83
2023/01/26 01:33:13;;;;;;;16.02;7.32;;;0.70;81.00;;;;;;4226150;28;20088;-84
2023/01/26 01:35:34;;;;;;;14.65;6.28;;;0.80;81.00;;;;;;4221942;28;20058;-84
2023/01/26 01:37:53;;;;;;;16.48;6.97;;;0.80;80.90;;;;;;4217998;27;20089;-83
2023/01/26 01:40:13;;;;;;;15.40;6.63;;;0.80;80.90;;;;;;4219397;27;20043;-82
2023/01/26 01:42:32;;;;;;;16.05;7.30;;;0.80;81.00;;;;;;4216760;27;20115;-83
2023/01/26 01:45:25;;;;;;;12.40;5.95;;;0.80;81.10;;;;;;4221670;27;20085;-83
2023/01/26 01:47:45;;;;;;;12.43;6.15;;;0.80;81.10;;;;;;4221069;28;20057;-84
2023/01/26 01:50:05;;;;;;;14.65;6.35;;;0.80;81.00;;;;;;4222093;27;20084;-83
2023/01/26 01:52:28;;;;;;;14.30;6.15;;;0.80;81.00;;;;;;4222093;27;20169;-85
2023/01/26 01:54:53;;;;;;;12.00;5.82;;;0.80;80.90;;;;;;4221726;27;20608;-83
2023/01/26 01:57:16;;;;;;;13.98;6.40;;;0.80;81.00;;;;;;4224539;27;20035;-84
2023/01/26 01:59:36;;;;;;;12.35;5.63;;;0.80;81.00;;;;;;4224844;28;20070;-83
2023/01/26 02:01:55;;;;;;;14.27;6.00;;;0.80;81.00;;;;;;4227708;27;20053;-84
2023/01/26 02:04:15;;;;;;;13.30;5.78;;;0.80;81.10;;;;;;4226693;27;20043;-84
2023/01/26 02:06:45;;;;;;;10.07;4.63;;;0.90;81.10;;;;;;4223723;28;20644;-83
2023/01/26 02:09:05;;;;;;;13.60;6.65;;;0.90;81.20;;;;;;4224460;27;20849;-84
2023/01/26 02:11:35;;;;;;;13.93;6.88;;;0.80;81.20;;;;;;4223017;27;20068;-84
2023/01/26 02:13:57;;;;;;;13.00;6.88;;;0.90;81.10;;;;;;4209544;28;20501;-84
2023/01/26 02:16:17;;;;;;;12.68;5.70;;;0.90;81.20;;;;;;4209329;28;20341;-84
2023/01/26 02:18:37;;;;;;;13.68;5.75;;;0.90;81.10;;;;;;4210238;28;20035;-83
2023/01/26 02:21:00;;;;;;;12.45;6.10;;;0.90;81.20;;;;;;4220941;28;20042;-84
2023/01/26 02:23:56;;;;;;;10.73;5.30;;;0.90;81.20;;;;;;4225647;27;20559;-84
2023/01/26 02:26:20;;;;;;;10.13;4.85;;;0.90;81.20;;;;;;4226188;28;20637;-83
2023/01/26 02:28:41;;;;;;;11.52;5.20;;;0.90;81.90;;;;;;4226039;28;20805;-84
2023/01/26 02:31:01;;;;;;;8.98;4.63;;;0.90;81.10;;;;;;4221804;27;20538;-83
2023/01/26 02:33:25;;;;;;;12.40;5.22;;;0.90;81.20;;;;;;4226473;28;20173;-84
2023/01/26 02:35:44;;;;;;;10.15;4.57;;;0.90;81.20;;;;;;4224563;28;20074;-83
2023/01/26 02:38:03;;;;;;;9.43;4.38;;;0.90;81.10;;;;;;4226276;28;20031;-85
2023/01/26 02:40:40;;;;;;;11.93;5.18;;;1.00;81.20;;;;;;4225008;28;20063;-83
2023/01/26 02:43:01;;;;;;;9.48;5.38;;;0.90;81.20;;;;;;4230152;28;20080;-84
2023/01/26 02:45:21;;;;;;;10.52;4.60;;;1.00;81.40;;;;;;4208472;28;20039;-84
2023/01/26 02:47:41;;;;;;;11.18;5.32;;;1.00;81.30;;;;;;4223348;28;20756;-84
2023/01/26 02:50:00;;;;;;;9.80;4.53;;;1.00;81.30;;;;;;4206615;28;20036;-83
2023/01/26 02:52:22;;;;;;;10.63;5.55;;;1.00;81.20;;;;;;4226656;28;20035;-84
2023/01/26 02:57:20;;;;;;;12.35;4.70;;;1.10;81.20;;;;;;4229116;27;20030;-83
2023/01/26 02:59:39;;;;;;;10.85;4.53;;;1.00;81.20;;;;;;4230910;27;20062;-84
2023/01/26 03:01:58;;;;;;;9.00;4.88;;;1.00;81.30;;;;;;4216770;27;20035;-83
2023/01/26 03:04:17;;;;;;;11.20;5.28;;;1.00;81.30;;;;;;4228557;27;20039;-84
2023/01/26 03:06:37;;;;;;;9.25;4.30;;;1.00;81.20;;;;;;4226201;27;20051;-83
2023/01/26 03:08:56;;;;;;;11.93;5.15;;;1.00;81.10;;;;;;4228473;27;20091;-83
2023/01/26 03:11:15;;;;;;;11.77;5.13;;;1.00;81.10;;;;;;4228454;27;20056;-82
2023/01/26 03:13:34;;;;;;;11.93;5.53;;;1.00;81.10;;;;;;4226943;27;20039;-84
2023/01/26 03:15:53;;;;;;;10.55;5.28;;;1.10;81.30;;;;;;4226804;27;20047;-83
2023/01/26 03:29:09;;;;;;;8.95;5.32;;;1.10;81.20;;;;;;4225433;27;20161;-83
2023/01/26 03:31:28;;;;;;;12.43;5.80;;;1.10;81.20;;;;;;4224851;27;20552;-83
2023/01/26 03:33:47;;;;;;;12.70;5.40;;;1.10;81.20;;;;;;4213741;28;20038;-83
2023/01/26 03:36:07;;;;;;;11.02;5.70;;;1.10;81.20;;;;;;4224519;27;20039;-83
2023/01/26 03:38:26;;;;;;;11.18;5.38;;;1.10;81.30;;;;;;4225681;27;20108;-83
2023/01/26 03:56:35;;;;;;;12.77;6.15;;;1.10;81.30;;;;;;4221460;27;20089;-83
2023/01/26 03:58:56;;;;;;;13.30;6.30;;;1.20;81.30;;;;;;4221316;27;20034;-83
2023/01/26 04:01:18;;;;;;;11.82;5.63;;;1.20;81.40;;;;;;4209314;27;20129;-82
2023/01/26 04:08:54;;;;;;;12.52;6.28;;;1.20;81.40;;;;;;4228147;27;20038;-83
2023/01/26 04:11:13;;;;;;;13.00;6.00;;;1.20;81.30;;;;;;4211022;28;20836;-83
2023/01/26 04:21:32;;;;;;;12.20;6.63;;;1.20;81.30;;;;;;4224210;28;20159;-83
2023/01/26 04:23:58;;;;;;;12.73;6.28;;;1.20;81.30;;;;;;4210208;28;20567;-83
2023/01/26 04:26:17;;;;;;;14.95;6.05;;;1.20;81.30;;;;;;4223746;28;20509;-84
2023/01/26 04:28:37;;;;;;;14.18;6.57;;;1.30;81.40;;;;;;4229729;27;20046;-83
2023/01/26 04:30:56;;;;;;;13.60;6.43;;;1.30;81.40;;;;;;4225141;27;20058;-83
2023/01/26 04:33:15;;;;;;;12.40;5.85;;;1.30;81.40;;;;;;4227268;27;20055;-83
2023/01/26 04:35:50;;;;;;;14.95;6.20;;;1.30;81.40;;;;;;4227487;28;20027;-83
2023/01/26 04:38:09;;;;;;;13.73;6.00;;;1.30;81.40;;;;;;4222386;27;20046;-83
2023/01/26 04:40:29;;;;;;;11.35;6.10;;;1.30;82.10;;;;;;4225849;27;20031;-83
2023/01/26 04:42:48;;;;;;;14.52;6.40;;;1.30;81.40;;;;;;4224535;28;20155;-84
2023/01/26 04:45:09;;;;;;;13.27;6.68;;;1.30;81.40;;;;;;4226067;28;20088;-83
2023/01/26 04:47:28;;;;;;;11.48;5.85;;;1.40;81.40;;;;;;4214541;27;20114;-83
2023/01/26 04:49:48;;;;;;;12.38;6.13;;;1.40;81.40;;;;;;4215275;28;20069;-83
2023/01/26 04:52:07;;;;;;;12.57;6.30;;;1.40;81.40;;;;;;4227794;27;20088;-83
2023/01/26 04:54:26;;;;;;;13.88;6.05;;;1.40;81.40;;;;;;4224491;27;20038;-83
2023/01/26 04:56:45;;;;;;;13.75;6.78;;;1.40;81.40;;;;;;4227357;27;20543;-83
2023/01/26 04:59:06;;;;;;;15.50;6.38;;;1.40;81.40;;;;;;4225235;27;20070;-83
2023/01/26 05:01:25;;;;;;;13.52;6.45;;;1.40;81.30;;;;;;4227199;27;20047;-83
2023/01/26 05:03:45;;;;;;;16.98;6.85;;;1.40;81.20;;;;;;4221971;27;20488;-83
2023/01/26 05:06:04;;;;;;;18.73;6.72;;;1.40;81.30;;;;;;4221944;27;20039;-82
2023/01/26 05:08:23;;;;;;;22.52;6.82;;;1.40;81.30;;;;;;4226101;28;20077;-83
2023/01/26 05:10:42;;;;;;;20.73;7.13;;;1.40;81.30;;;;;;4223075;28;20039;-84
2023/01/26 05:13:02;;;;;;;24.25;7.90;;;1.40;81.20;;;;;;4222633;27;20066;-83
2023/01/26 05:15:21;;;;;;;18.42;7.63;;;1.40;81.20;;;;;;4219366;28;20060;-83
2023/01/26 05:17:40;;;;;;;18.63;6.93;;;1.50;81.20;;;;;;4224314;27;20038;-83
2023/01/26 05:19:59;;;;;;;18.67;7.15;;;1.50;81.20;;;;;;4221431;28;20713;-83
2023/01/26 05:22:18;;;;;;;23.45;8.43;;;1.50;81.20;;;;;;4222348;28;20085;-83
2023/01/26 05:24:37;;;;;;;20.40;7.65;;;1.40;81.20;;;;;;4224491;27;21583;-83
2023/01/26 05:27:19;;;;;;;29.52;8.13;;;1.50;81.30;;;;;;4224164;28;20081;-83
2023/01/26 05:29:36;;;;;;;20.48;7.93;;;1.50;81.20;;;;;;4224519;28;20689;-82
2023/01/26 05:31:55;;;;;;;27.05;8.60;;;1.50;81.20;;;;;;4223088;28;20126;-82
2023/01/26 05:34:14;;;;;;;24.83;7.93;;;1.50;81.20;;;;;;4214142;28;20568;-83
2023/01/26 05:36:33;;;;;;;22.88;8.40;;;1.50;81.20;;;;;;4228550;27;20088;-83
2023/01/26 05:38:52;;;;;;;23.75;8.93;;;1.50;81.20;;;;;;4219836;28;20603;-82
2023/01/26 05:41:11;;;;;;;27.35;8.95;;;1.50;81.20;;;;;;4210911;28;20093;-83
2023/01/26 05:43:30;;;;;;;21.50;9.52;;;1.50;81.40;;;;;;4221699;28;20096;-83
2023/01/26 05:45:50;;;;;;;23.73;8.98;;;1.50;81.40;;;;;;4223286;28;20528;-83
2023/01/26 05:48:09;;;;;;;24.10;9.05;;;1.50;81.40;;;;;;4210054;27;20046;-84
2023/01/26 05:50:28;;;;;;;35.60;9.55;;;1.50;81.40;;;;;;4219985;28;20148;-82
2023/01/26 05:52:48;;;;;;;29.10;9.10;;;1.50;81.40;;;;;;4211014;28;20081;-84
2023/01/26 05:55:08;;;;;;;37.38;11.95;;;1.50;81.40;;;;;;4223830;28;20447;-83
2023/01/26 05:57:27;;;;;;;26.80;11.05;;;1.50;81.30;;;;;;4220701;27;20034;-83
2023/01/26 05:59:46;;;;;;;33.70;9.82;;;1.50;81.30;;;;;;4207274;28;20027;-84
2023/01/26 06:02:05;;;;;;;27.25;10.18;;;1.50;81.40;;;;;;4224872;28;20115;-83
2023/01/26 06:04:24;;;;;;;27.42;10.10;;;1.50;81.40;;;;;;4221669;28;20465;-83
2023/01/26 06:06:43;;;;;;;55.42;9.60;;;1.50;81.40;;;;;;4221637;28;20352;-83
2023/01/26 06:09:02;;;;;;;32.47;10.38;;;1.60;81.50;;;;;;4223852;27;20039;-83
2023/01/26 06:11:21;;;;;;;31.38;10.32;;;1.60;81.60;;;;;;4209923;28;20661;-83
2023/01/26 06:13:41;;;;;;;39.08;9.40;;;1.60;81.70;;;;;;4223102;28;20112;-84
2023/01/26 06:16:01;;;;;;;31.45;10.23;;;1.60;81.70;;;;;;4222122;28;20042;-83
2023/01/26 06:18:20;;;;;;;31.58;10.88;;;1.60;81.80;;;;;;4227758;28;20034;-84
2023/01/26 06:20:39;;;;;;;37.22;10.20;;;1.60;82.00;;;;;;4212031;28;20047;-83
2023/01/26 06:23:00;;;;;;;31.17;9.75;;;1.60;82.00;;;;;;4228744;27;20051;-83
2023/01/26 06:25:19;;;;;;;26.02;9.57;;;1.70;82.20;;;;;;4223309;28;20088;-84
2023/01/26 06:27:40;;;;;;;32.85;10.05;;;1.70;82.30;;;;;;4221887;28;20483;-83
2023/01/26 06:30:00;;;;;;;33.65;10.18;;;1.70;82.30;;;;;;4212030;28;20090;-84
2023/01/26 06:32:19;;;;;;;34.00;10.38;;;1.80;82.30;;;;;;4224151;28;20100;-84
2023/01/26 06:34:38;;;;;;;28.50;9.35;;;1.80;82.30;;;;;;4208250;28;20085;-84
2023/01/26 06:36:57;;;;;;;38.25;9.77;;;1.80;82.30;;;;;;4215790;28;20052;-84
2023/01/26 06:39:16;;;;;;;31.85;10.85;;;1.90;82.40;;;;;;4209241;28;20031;-83
2023/01/26 06:41:35;;;;;;;35.35;11.18;;;1.90;82.40;;;;;;4221428;28;20031;-84
2023/01/26 06:43:54;;;;;;;35.65;11.15;;;1.90;83.10;;;;;;4226240;28;20070;-84
2023/01/26 06:46:15;;;;;;;41.00;11.05;;;1.90;82.30;;;;;;4210606;28;20035;-84
2023/01/26 06:48:35;;;;;;;34.50;10.77;;;1.90;82.30;;;;;;4212124;28;20531;-85
2023/01/26 06:51:16;;;;;;;35.67;9.60;;;2.00;82.40;;;;;;4205431;28;20085;-84
2023/01/26 06:53:38;;;;;;;48.22;11.95;;;2.00;82.50;;;;;;4223924;28;20084;-84
2023/01/26 06:55:58;;;;;;;53.97;12.15;;;2.10;82.70;;;;;;4209746;28;20034;-83
2023/01/26 06:58:17;;;;;;;55.53;12.75;;;2.20;83.00;;;;;;4220113;28;20092;-84
2023/01/26 07:00:38;;;;;;;49.28;11.00;;;2.10;83.20;;;;;;4222169;28;20034;-83
2023/01/26 07:02:57;;;;;;;40.42;11.13;;;2.20;83.50;;;;;;4227237;28;20093;-84
2023/01/26 07:05:16;;;;;;;51.25;10.77;;;2.20;83.60;;;;;;4223770;28;20530;-85
2023/01/26 07:07:35;;;;;;;43.33;11.25;;;2.30;83.70;;;;;;4213018;28;20077;-84
2023/01/26 07:09:55;;;;;;;53.70;10.43;;;2.30;83.60;;;;;;4223692;28;20046;-83
2023/01/26 07:12:14;;;;;;;48.60;11.15;;;2.30;83.60;;;;;;4226242;28;20038;-84
2023/01/26 07:14:33;;;;;;;44.42;10.43;;;2.40;83.60;;;;;;4223273;28;21311;-84
2023/01/26 07:16:52;;;;;;;44.97;10.43;;;2.40;83.70;;;;;;4208722;28;20040;-84
2023/01/26 07:19:11;;;;;;;46.25;10.30;;;2.50;83.60;;;;;;4225476;28;20043;-83
2023/01/26 07:21:31;;;;;;;49.22;12.00;;;2.50;83.60;;;;;;4226927;28;20058;-83
2023/01/26 07:23:52;;;;;;;52.05;10.10;;;2.50;83.60;;;;;;4224418;28;20050;-85
2023/01/26 07:26:11;;;;;;;57.92;9.82;;;2.60;83.70;;;;;;4209396;28;20091;-84
2023/01/26 07:28:30;;;;;;;48.97;8.68;;;2.60;83.70;;;;;;4220132;28;20047;-83
2023/01/26 07:30:48;;;;;;;37.40;8.63;;;2.60;83.80;;;;;;4224752;28;20501;-84
2023/01/26 07:33:07;;;;;;;53.88;9.48;;;2.70;83.80;;;;;;4220007;28;20047;-84
2023/01/26 07:35:28;;;;;;;44.13;9.50;;;2.70;83.80;;;;;;4225581;28;20027;-85
2023/01/26 07:37:47;;;;;;;33.53;8.02;;;2.70;83.70;;;;;;4228586;28;20058;-84
2023/01/26 07:40:07;;;;;;;36.25;8.00;;;2.70;83.70;;;;;;4224906;28;20038;-84
2023/01/26 07:42:26;;;;;;;37.67;8.82;;;2.80;83.70;;;;;;4228738;27;20120;-84
2023/01/26 07:44:46;;;;;;;51.75;9.32;;;2.80;83.70;;;;;;4230447;27;20508;-84
2023/01/26 07:47:05;;;;;;;51.15;9.15;;;2.80;83.70;;;;;;4222691;27;20035;-83
2023/01/26 07:49:24;;;;;;;33.40;9.43;;;2.90;83.80;;;;;;4226893;27;20058;-84
2023/01/26 07:51:43;;;;;;;32.83;9.60;;;2.90;84.00;;;;;;4232217;27;20050;-84
2023/01/26 07:54:02;;;;;;;44.05;8.63;;;2.90;84.00;;;;;;4229343;27;21814;-83
2023/01/26 07:56:21;;;;;;;27.92;8.52;;;2.90;83.90;;;;;;4210556;27;20243;-84
2023/01/26 07:58:41;;;;;;;26.25;8.52;;;2.90;84.00;;;;;;4227638;27;20043;-84
2023/01/26 08:01:08;;;;;;;26.92;7.70;;;3.00;84.10;;;;;;4228940;27;20038;-84
2023/01/26 08:03:28;;;;;;;30.75;7.88;;;3.00;84.20;;;;;;4224880;27;20042;-84
2023/01/26 08:05:47;;;;;;;23.73;7.72;;;3.00;84.20;;;;;;4212639;28;20947;-84
2023/01/26 08:08:08;;;;;;;31.60;7.90;;;3.00;84.30;;;;;;4212059;28;20540;-84
2023/01/26 08:10:30;;;;;;;27.73;7.93;;;3.00;84.40;;;;;;4224739;27;20035;-84
2023/01/26 08:12:49;;;;;;;25.70;7.32;;;3.10;84.50;;;;;;4212051;28;20044;-84
2023/01/26 08:15:10;;;;;;;28.02;6.88;;;3.10;84.60;;;;;;4225518;28;20065;-85
2023/01/26 08:17:29;;;;;;;28.42;6.80;;;3.10;84.60;;;;;;4230660;27;20120;-84
2023/01/26 08:19:48;;;;;;;23.38;6.00;;;3.20;84.70;;;;;;4226615;27;20120;-84
2023/01/26 08:22:07;;;;;;;33.28;7.10;;;3.20;84.80;;;;;;4210992;28;20046;-84
2023/01/26 08:24:27;;;;;;;26.17;5.78;;;3.20;84.90;;;;;;4229335;27;20093;-84
2023/01/26 08:26:46;;;;;;;20.15;4.78;;;3.20;84.90;;;;;;4231099;27;20066;-84
2023/01/26 08:29:05;;;;;;;26.33;4.68;;;3.30;85.10;;;;;;4218487;28;20547;-85
2023/01/26 08:31:24;;;;;;;30.70;4.63;;;3.30;85.10;;;;;;4211442;28;20047;-84
2023/01/26 08:33:44;;;;;;;32.10;5.30;;;3.30;85.20;;;;;;4225915;27;20111;-84
2023/01/26 08:36:05;;;;;;;28.08;4.07;;;3.40;85.30;;;;;;4214476;28;20038;-85
2023/01/26 08:38:24;;;;;;;20.80;4.13;;;3.40;85.20;;;;;;4229767;28;20062;-85
2023/01/26 08:40:43;;;;;;;37.92;9.48;;;3.40;85.20;;;;;;4225532;28;20544;-84
2023/01/26 08:43:03;;;;;;;25.15;5.32;;;3.50;85.10;;;;;;4215392;28;20047;-84
2023/01/26 08:45:22;;;;;;;30.23;6.35;;;3.50;85.30;;;;;;4231949;27;20051;-84
2023/01/26 08:47:41;;;;;;;31.50;5.28;;;3.50;85.20;;;;;;4213985;28;20153;-84
2023/01/26 08:50:00;;;;;;;36.15;4.38;;;3.50;85.10;;;;;;4230667;27;20628;-83
2023/01/26 08:52:20;;;;;;;26.70;4.30;;;3.60;85.20;;;;;;4220281;28;20113;-84
2023/01/26 08:54:39;;;;;;;24.35;3.95;;;3.70;85.30;;;;;;4226853;27;20047;-83
2023/01/26 08:56:58;;;;;;;33.90;4.85;;;3.60;86.10;;;;;;4219988;28;20103;-84
2023/01/26 08:59:17;;;;;;;20.60;4.10;;;3.60;85.30;;;;;;4230122;28;20123;-84
2023/01/26 09:01:36;;;;;;;32.08;5.57;;;3.60;85.30;;;;;;4215229;28;20055;-85
2023/01/26 09:03:55;;;;;;;37.50;5.80;;;3.70;85.20;;;;;;4229615;27;20073;-85
2023/01/26 09:06:15;;;;;;;25.60;5.25;;;3.70;85.20;;;;;;4224388;27;20054;-84
2023/01/26 09:08:35;;;;;;;19.70;4.18;;;3.70;85.10;;;;;;4221578;27;20861;-82
2023/01/26 09:10:54;;;;;;;21.45;4.15;;;3.70;85.00;;;;;;4225947;27;20085;-84
2023/01/26 09:13:13;;;;;;;25.17;3.85;;;3.80;85.00;;;;;;4226459;27;20035;-84
2023/01/26 09:15:32;;;;;;;25.95;4.30;;;3.80;85.00;;;;;;4218544;28;20038;-83
2023/01/26 09:17:52;;;;;;;22.15;3.70;;;3.80;84.90;;;;;;4222888;27;20034;-84
2023/01/26 09:20:11;;;;;;;29.08;4.90;;;3.80;84.90;;;;;;4223987;27;20035;-84
2023/01/26 09:22:30;;;;;;;35.35;4.68;;;3.80;84.80;;;;;;4222611;28;20119;-84
2023/01/26 09:24:49;;;;;;;29.95;4.78;;;3.80;84.80;;;;;;4221847;27;20082;-84
2023/01/26 09:27:08;;;;;;;38.70;4.60;;;3.80;84.80;;;;;;4224078;28;20100;-84
2023/01/26 09:29:28;;;;;;;40.10;10.18;;;3.80;84.80;;;;;;4207096;28;20059;-83
2023/01/26 09:31:47;;;;;;;37.05;11.40;;;3.80;84.70;;;;;;4222698;27;20063;-83
2023/01/26 09:34:06;;;;;;;39.55;8.20;;;3.80;84.80;;;;;;4224257;27;20045;-84
2023/01/26 09:36:25;;;;;;;22.73;4.88;;;3.90;84.80;;;;;;4226390;27;20077;-84
2023/01/26 09:38:45;;;;;;;24.40;4.47;;;3.90;84.70;;;;;;4222894;27;20093;-84
2023/01/26 09:41:21;;;;;;;20.50;4.60;;;3.90;84.70;;;;;;4209845;28;20047;-84
2023/01/26 09:43:46;;;;;;;24.63;4.85;;;3.90;84.70;;;;;;4222651;27;20037;-84
2023/01/26 09:46:24;;;;;;;27.80;4.45;;;3.90;84.60;;;;;;4226438;28;20042;-83
2023/01/26 09:49:02;;;;;;;37.65;4.57;;;3.90;84.40;;;;;;4211035;28;20127;-84
2023/01/26 09:51:32;;;;;;;25.38;5.32;;;4.00;84.50;;;;;;4225412;27;20121;-83
2023/01/26 09:54:03;;;;;;;15.38;3.80;;;4.00;84.40;;;;;;4213324;27;20105;-84
2023/01/26 09:56:27;;;;;;;23.60;5.18;;;4.00;84.30;;;;;;4224899;28;20030;-84
2023/01/26 09:58:54;;;;;;;25.50;4.45;;;4.00;84.20;;;;;;4216063;28;20602;-84
2023/01/26 10:01:23;;;;;;;15.98;3.63;;;4.00;84.10;;;;;;4214901;28;20038;-84
2023/01/26 10:03:42;;;;;;;22.73;4.03;;;4.10;84.20;;;;;;4225171;27;20084;-84
2023/01/26 10:06:04;;;;;;;43.70;10.98;;;4.00;84.10;;;;;;4221765;27;20046;-84
2023/01/26 10:08:25;;;;;;;37.40;8.93;;;4.00;84.10;;;;;;4222508;28;20053;-84
2023/01/26 10:10:58;;;;;;;44.30;12.43;;;4.00;84.00;;;;;;4208319;28;20054;-84
2023/01/26 10:13:20;;;;;;;18.85;4.50;;;4.00;83.90;;;;;;4221709;28;20073;-84
2023/01/26 10:15:43;;;;;;;20.98;4.75;;;4.00;83.90;;;;;;4223995;28;20488;-84
2023/01/26 10:18:06;;;;;;;20.67;3.83;;;4.00;83.90;;;;;;4227517;27;20435;-83
2023/01/26 10:20:39;;;;;;;23.38;4.13;;;4.10;83.80;;;;;;4234267;28;20039;-83
2023/01/26 10:23:24;;;;;;;25.92;4.07;;;4.10;83.90;;;;;;4223250;27;20031;-84
2023/01/26 10:25:45;;;;;;;31.65;4.47;;;4.10;83.80;;;;;;4209959;27;20512;-84
2023/01/26 10:28:24;;;;;;;18.23;4.15;;;4.10;83.90;;;;;;4225621;28;20470;-84
2023/01/26 10:30:45;;;;;;;21.65;4.50;;;4.10;84.00;;;;;;4231098;28;20053;-85
2023/01/26 10:33:24;;;;;;;44.70;14.07;;;4.10;83.90;;;;;;4222885;28;20572;-84
2023/01/26 10:35:43;;;;;;;50.45;15.48;;;4.10;83.70;;;;;;4223813;28;20037;-84
2023/01/26 10:38:02;;;;;;;43.72;13.60;;;4.10;83.70;;;;;;4225162;27;20423;-84
2023/01/26 10:40:21;;;;;;;30.25;8.40;;;4.10;83.70;;;;;;4224536;28;20038;-83
2023/01/26 10:42:40;;;;;;;30.35;8.05;;;4.20;83.80;;;;;;4223470;28;20039;-84
2023/01/26 10:45:03;;;;;;;34.33;5.97;;;4.20;83.70;;;;;;4225123;28;20057;-84
2023/01/26 10:47:23;;;;;;;24.48;4.93;;;4.20;83.70;;;;;;4204947;28;20085;-83
2023/01/26 10:49:43;;;;;;;20.33;4.30;;;4.20;83.80;;;;;;4206718;28;20047;-84
2023/01/26 10:52:13;;;;;;;25.45;5.32;;;4.20;83.70;;;;;;4211771;28;20042;-84
2023/01/26 10:54:34;;;;;;;17.10;4.00;;;4.20;83.70;;;;;;4219991;28;20042;-83
2023/01/26 10:56:59;;;;;;;24.88;3.63;;;4.20;83.40;;;;;;4219460;28;20909;-84
2023/01/26 10:59:24;;;;;;;21.13;3.45;;;4.20;83.50;;;;;;4206923;28;20088;-84
2023/01/26 11:02:13;;;;;;;25.60;4.40;;;4.30;83.40;;;;;;4223761;28;20444;-84
2023/01/26 11:04:32;;;;;;;20.98;3.40;;;4.30;83.40;;;;;;4225266;28;20061;-85
2023/01/26 11:06:51;;;;;;;13.55;2.72;;;4.30;82.60;;;;;;4222363;28;20129;-84
2023/01/26 11:09:25;;;;;;;16.77;3.00;;;4.30;82.90;;;;;;4227619;28;20468;-84
2023/01/26 11:12:18;;;;;;;19.95;3.13;;;4.30;83.00;;;;;;4203638;28;20081;-84
2023/01/26 11:14:38;;;;;;;14.25;2.70;;;4.30;83.80;;;;;;4171628;28;20221;-84
2023/01/26 11:16:55;;;;;;;20.95;2.35;;;4.30;82.80;;;;;;4170379;28;20039;-83
2023/01/26 11:19:11;;;;;;;13.43;2.70;;;4.30;82.80;;;;;;4157009;28;20116;-83
2023/01/26 11:21:17;;;;;;;14.00;3.15;;;4.30;82.70;;;;;;4170858;28;20032;-84
2023/01/26 11:23:30;;;;;;;23.13;6.68;;;4.30;82.70;;;;;;4177239;28;20025;-84
2023/01/26 11:25:44;;;;;;;31.02;9.13;;;4.40;82.80;;;;;;4144163;28;20030;-84
2023/01/26 11:27:50;;;;;;;18.58;4.25;;;4.40;83.00;;;;;;4161512;28;20057;-84
2023/01/26 11:30:05;;;;;;;25.98;4.32;;;4.40;83.10;;;;;;4175342;28;20145;-84
2023/01/26 11:32:24;;;;;;;26.80;4.05;;;4.40;83.00;;;;;;4174326;28;20116;-84
2023/01/26 11:34:37;;;;;;;21.95;6.10;;;4.40;82.80;;;;;;4175704;28;20053;-84
2023/01/26 11:36:48;;;;;;;19.08;3.20;;;4.50;82.90;;;;;;4157703;28;20041;-83
2023/01/26 11:39:18;;;;;;;18.77;3.67;;;4.40;82.70;;;;;;4173919;28;20074;-83
2023/01/26 11:41:33;;;;;;;18.45;3.00;;;4.50;82.80;;;;;;4176837;28;20029;-83
2023/01/26 11:43:52;;;;;;;23.40;3.00;;;4.50;82.70;;;;;;4159526;28;20113;-84
2023/01/26 11:46:24;;;;;;;18.65;3.10;;;4.50;82.60;;;;;;4162443;28;20033;-84
2023/01/26 11:48:43;;;;;;;14.40;2.75;;;4.50;82.70;;;;;;4161691;28;20033;-84
2023/01/26 11:50:46;;;;;;;21.27;3.67;;;4.50;82.50;;;;;;4204399;28;20040;-84
2023/01/26 11:53:02;;;;;;;16.17;2.63;;;4.50;82.40;;;;;;4240616;28;20028;-84
2023/01/26 11:55:23;;;;;;;14.25;2.88;;;4.60;82.50;;;;;;4245672;28;20064;-83
2023/01/26 11:57:40;;;;;;;20.85;2.88;;;4.60;82.50;;;;;;4248291;27;20019;-83
2023/01/26 11:59:47;;;;;;;15.93;2.50;;;4.60;82.20;;;;;;4214892;28;20028;-83
2023/01/26 12:02:02;;;;;;;19.50;2.55;;;4.60;82.10;;;;;;4216329;28;20032;-83
2023/01/26 12:04:03;;;;;;;19.42;3.15;;;4.60;82.00;;;;;;4230604;27;20030;-84
2023/01/26 12:06:07;;;;;;;14.70;2.83;;;4.60;81.90;;;;;;4234489;27;20055;-84
2023/01/26 12:08:13;;;;;;;24.50;3.08;;;4.60;81.80;;;;;;4218054;28;20036;-84
2023/01/26 12:10:14;;;;;;;17.30;2.80;;;4.60;81.70;;;;;;4242237;27;20074;-83
2023/01/26 12:12:31;;;;;;;15.27;3.50;;;4.60;81.70;;;;;;4207613;28;20028;-83
2023/01/26 12:14:54;;;;;;;18.20;5.38;;;4.60;81.80;;;;;;4200909;28;20025;-84
2023/01/26 12:17:15;;;;;;;33.95;8.55;;;4.60;81.60;;;;;;4225366;27;20065;-83
2023/01/26 12:19:46;;;;;;;20.05;4.78;;;4.60;81.60;;;;;;4212413;28;20099;-83
2023/01/26 12:21:49;;;;;;;20.00;3.53;;;4.60;81.40;;;;;;4229161;27;20073;-83
2023/01/26 12:23:57;;;;;;;16.40;3.67;;;4.60;81.20;;;;;;4213359;28;20023;-83
2023/01/26 12:26:13;;;;;;;14.18;3.47;;;4.60;81.40;;;;;;4205177;28;20169;-83
2023/01/26 12:28:18;;;;;;;13.00;3.10;;;4.60;81.40;;;;;;4225222;28;20358;-83
2023/01/26 12:30:46;;;;;;;16.98;3.25;;;4.70;81.50;;;;;;4226275;28;20054;-83
2023/01/26 12:32:47;;;;;;;20.02;3.50;;;4.70;81.50;;;;;;4210675;28;20055;-85
2023/01/26 12:34:47;;;;;;;10.00;2.83;;;4.70;81.40;;;;;;4226617;27;20031;-84
2023/01/26 12:37:09;;;;;;;13.55;2.97;;;4.70;81.40;;;;;;4208646;28;20214;-83
2023/01/26 12:39:20;;;;;;;17.58;3.20;;;4.70;81.30;;;;;;4228334;27;20024;-84
2023/01/26 12:41:39;;;;;;;16.50;2.80;;;4.70;80.90;;;;;;4198133;28;20074;-83
2023/01/26 12:44:02;;;;;;;13.90;2.95;;;4.70;80.80;;;;;;4231367;27;20024;-84
2023/01/26 12:46:06;;;;;;;15.75;3.03;;;4.70;80.70;;;;;;4198855;28;20056;-83
2023/01/26 12:48:20;;;;;;;21.77;2.88;;;4.70;80.30;;;;;;4230597;27;20027;-83
2023/01/26 12:50:27;;;;;;;14.48;2.85;;;4.70;80.50;;;;;;4200505;28;20032;-84